Crater Lake National Park, OR

9:14 PM PDT on October 24, 2014 (GMT -0700)
Klamath Agency on Wood River Canal | Change Station
CLOSE
Current Station
Personal Weather Station
Location: Chiloquin, OR
Elevation: 4170 ft
Nearby Weather Stations

Elev 4170 ft 42.58 °N, 121.93 °W | Updated 13 minutes ago

Partly Cloudy
Partly Cloudy
53.6 °F
Feels Like 53.6 °F
N
2.0
Wind Variable Wind from SW
Gusts 7.0 mph

Today
High -- | Low -- °F
--% Chance of Precip.
Yesterday
High -- | Low -- °F
Precip. -- in
7:31 AM 6:11 PM
New Moon, 2% visible
Pressure 29.82 in
Visibility 10.0 miles
Clouds Clear
Dew Point 39 °F
Humidity 58%
Rainfall 0.30 in
Snow Depth 0 in , 0 in
UV 0 out of 12
Pollen .40 out of 12
Air Quality Not available.
Flu Activity Sporadic
METAR KLMT 250353Z 17013G22KT 10SM CLR 13/02 A2987 RMK AO2 PK WND 17026/0257 SLP098 T01280022

More Conditions Fewer Conditions

Pressure 29.82 in
Visibility 10.0 miles
Clouds Clear
Dew Point 39 °F
Humidity 58%
Rainfall 0.30 in
Snow Depth 0 in , 0 in
UV 0 out of 12
Pollen .40 out of 12
Air Quality Not available.
Flu Activity Sporadic
METAR KLMT 250353Z 17013G22KT 10SM CLR 13/02 A2987 RMK AO2 PK WND 17026/0257 SLP098 T01280022

More Conditions Fewer Conditions

10-Day Weather Forecast

Almanac

Astronomy

Oct. 24, 2014 Rise Set
Actual Time 7:31 AM PDT 6:11 PM PDT
Civil Twilight 7:02 AM PDT 6:39 PM PDT
Nautical Twilight 6:29 AM PDT 7:12 PM PDT
Astronomical Twilight 5:56 AM PDT 7:45 PM PDT
Moon 8:16 AM PDT (10/24) 6:53 PM PDT (10/24)
Length of Visible Light 11h 37m
Length of Day
10h 39m
Tomorrow will be 2m 41s shorter.
New Moon, 2% of the Moon is Illuminated
Oct 25
New Moon
Oct 30
First Quarter
Nov 6
Full
Nov 14
Last Quarter
Nov 22
New

Today's Extremes

State Highs State Lows

Community

WunderPhotos

Upload Photos

1,764,779 photos uploaded!

Nearby

Snow Depth

Station Depth Elevation
Sevenmile Marsh 0 in 6200 ft
Cold Springs Camp 0 in 6100 ft
Billie Creek Divide 0 in 5300 ft
Annie Springs 0 in 6020 ft
Fish Lake 0 in 4665 ft

Earthquake Activity

City Distance Mag. Time & Date
No recent earthquake activity has been reported nearby.
Minimum magnitude displayed is 2.5.

Coastal Water Temperatures

Place Temperature
No Stations Reporting

Nearby Weather Stations